Time;durP1;ratioP1;P1;durP2;ratioP2;P2;SDS_P1;SDS_P2;PMS_P1;PMS_P2;Temp;Humidity;BMP_temperature;BMP_pressure;BME280_temperature;BME280_humidity;BME280_pressure;Samples;Min_cycle;Max_cycle;Signal;HPM_P1;HPM_P2
2022/02/11 04:56:54;;;;;;;;;;;;;;;2.98;100.00;100557.53;4954637;29;19918;-83
2022/02/11 04:59:34;;;;;;;;;;;;;;;2.85;100.00;100566.28;4954363;29;19926;-86
2022/02/11 05:02:00;;;;;;;;;;;;;;;2.87;100.00;100564.53;4953181;29;19925;-84
2022/02/11 05:04:25;;;;;;;;;;;;;;;2.83;100.00;100565.41;4954408;29;19927;-85
2022/02/11 05:06:51;;;;;;;;;;;;;;;2.83;100.00;100565.41;4954498;29;19915;-86
2022/02/11 05:09:16;;;;;;;;;;;;;;;2.87;100.00;100569.75;4953596;29;19922;-85
2022/02/11 05:11:42;;;;;;;;;;;;;;;2.84;100.00;100570.66;4954356;29;20365;-85
2022/02/11 05:14:07;;;;;;;;;;;;;;;2.80;100.00;100575.88;4954089;29;19918;-85
2022/02/11 05:16:33;;;;;;;;;;;;;;;2.81;100.00;100570.63;4954428;29;19918;-84
2022/02/11 05:18:58;;;;;;;;;;;;;;;2.84;100.00;100586.34;4952785;29;19926;-84
2022/02/11 05:21:24;;;;;;;;;;;;;;;2.81;100.00;100590.69;4954333;29;19925;-85
2022/02/11 05:23:49;;;;;;;;;;;;;;;2.81;100.00;100590.69;4954205;29;20361;-84
2022/02/11 05:26:14;;;;;;;;;;;;;;;2.80;100.00;100588.97;4953992;29;19918;-84
2022/02/11 05:28:40;;;;;;;;;;;;;;;2.80;99.50;100594.19;4953747;29;20368;-84
2022/02/11 08:49:23;;;;;;;;;;;;;;;2.27;79.42;100936.66;4927419;29;19982;-85
2022/02/11 08:51:49;;;;;;;;;;;;;;;2.29;79.33;100940.16;4917951;29;19926;-84
2022/02/11 08:54:14;;;;;;;;;;;;;;;2.27;79.09;100934.03;4934476;29;20382;-83
2022/02/11 08:56:39;;;;;;;;;;;;;;;2.29;79.09;100937.53;4935437;29;19919;-84
2022/02/11 08:59:06;;;;;;;;;;;;;;;2.30;78.92;100938.44;4934249;29;19922;-85
2022/02/11 09:01:31;;;;;;;;;;;;;;;2.33;78.88;100935.81;4934498;29;19919;-84
2022/02/11 09:03:56;;;;;;;;;;;;;;;2.35;79.20;100942.84;4917054;29;19938;-84
2022/02/11 09:06:22;;;;;;;;;;;;;;;2.31;78.60;100948.03;4935073;29;19925;-85
2022/02/11 09:08:47;;;;;;;;;;;;;;;2.36;78.60;100943.69;4935185;29;19970;-84
2022/02/11 09:11:16;;;;;;;;;;;;;;;2.35;78.53;100945.44;4935345;29;20266;-84
2022/02/11 09:13:41;;;;;;;;;;;;;;;2.37;78.20;100945.47;4935056;29;19947;-83
2022/02/11 09:16:06;;;;;;;;;;;;;;;2.36;78.10;100948.94;4935096;29;19922;-84
2022/02/11 09:18:32;;;;;;;;;;;;;;;2.37;77.88;100958.53;4933842;29;19925;-82
2022/02/11 09:20:58;;;;;;;;;;;;;;;2.32;77.91;100955.88;4935124;29;20330;-83
2022/02/11 09:23:25;;;;;;;;;;;;;;;2.34;77.87;100951.53;4934218;29;19926;-83
2022/02/11 09:25:51;;;;;;;;;;;;;;;2.34;77.62;100958.50;4934994;29;20422;-82
2022/02/11 09:28:16;;;;;;;;;;;;;;;2.35;77.72;100963.75;4917565;29;20017;-82
2022/02/11 09:30:41;;;;;;;;;;;;;;;2.36;77.67;100973.38;4934926;29;19925;-83
2022/02/11 09:33:08;;;;;;;;;;;;;;;2.36;77.34;100977.72;4933683;29;20342;-82
2022/02/11 09:35:34;;;;;;;;;;;;;;;2.36;77.46;100976.00;4934951;29;20424;-82
2022/02/11 09:37:59;;;;;;;;;;;;;;;2.40;77.29;100986.50;4934704;29;20009;-83
2022/02/11 09:40:25;;;;;;;;;;;;;;;2.42;77.25;100993.47;4934673;29;20398;-82
2022/02/11 09:42:51;;;;;;;;;;;;;;;2.39;77.12;100993.44;4934816;29;19919;-82
2022/02/11 09:45:20;;;;;;;;;;;;;;;2.44;77.06;101001.34;4933947;29;19977;-82
2022/02/11 09:47:45;;;;;;;;;;;;;;;2.43;76.91;101018.78;4933450;29;19919;-83
2022/02/11 09:50:11;;;;;;;;;;;;;;;2.47;77.03;101011.84;4934518;29;19930;-83
2022/02/11 09:52:43;;;;;;;;;;;;;;;2.46;76.70;101029.28;4934527;29;20401;-82
2022/02/11 09:57:54;;;;;;;;;;;;;;;7.46;70.05;101013.47;4934657;29;19974;-80
2022/02/11 10:00:23;;;;;;;;;;;;;;;7.34;70.46;101021.50;4934386;29;19927;-82
2022/02/11 10:02:50;;;;;;;;;;;;;;;7.15;72.89;101034.00;4915999;29;19923;-81
2022/02/11 10:05:19;;;;;;;;;;;;;;;5.09;74.54;101028.81;4917005;29;19985;-82
2022/02/11 10:07:45;;;;;;;;;;;;;;;3.33;79.67;101043.97;4934490;29;20009;-82
2022/02/11 10:10:13;;;;;;;;;;;;;;;2.68;81.94;101050.41;4934527;29;20429;-82
2022/02/11 10:12:38;;;;;;;;;;;;;;;2.28;83.02;101063.97;4934564;29;19934;-82
2022/02/11 10:15:16;;;;;;;;;;;;;;;2.14;83.85;101062.94;4934443;29;19918;-82
2022/02/11 10:17:41;;;;;;;;;;;;;;;2.19;84.95;101066.47;4932555;29;20084;-81
2022/02/11 10:20:08;;;;;;;;;;;;;;;2.52;88.44;101067.69;4932596;29;19919;-81
2022/02/11 10:22:33;;;;;;;;;;;;;;;2.80;90.58;101081.94;4934432;29;19925;-82
2022/02/11 10:24:58;;;;;;;;;;;;;;;2.94;90.34;101076.84;4934488;29;19922;-82
2022/02/11 10:27:28;;;;;;;;;;;;;;;3.02;89.11;101084.78;4934570;29;20267;-82
2022/02/11 10:29:56;;;;;;;;;;;;;;;3.05;87.50;101082.19;4934076;29;19923;-81
2022/02/11 10:32:36;;;;;;;;;;;;;;;3.11;86.51;101095.31;4930954;29;20025;-81
2022/02/11 10:35:02;;;;;;;;;;;;;;;3.16;85.37;101098.88;4919041;29;19923;-81
2022/02/11 10:37:27;;;;;;;;;;;;;;;3.14;84.35;101110.19;4920596;29;19925;-81
2022/02/11 10:39:57;;;;;;;;;;;;;;;3.12;83.82;101111.91;4937953;29;19922;-81
2022/02/11 10:42:40;;;;;;;;;;;;;;;3.16;83.38;101101.50;4920475;29;20004;-81
2022/02/11 10:45:24;;;;;;;;;;;;;;;3.11;82.79;101108.41;4937986;29;20018;-81
2022/02/11 10:48:06;;;;;;;;;;;;;;;3.08;82.29;101111.91;4936662;29;19926;-81
2022/02/11 10:50:31;;;;;;;;;;;;;;;3.13;81.93;101105.78;4937736;29;20021;-81
2022/02/11 10:52:56;;;;;;;;;;;;;;;3.14;81.87;101107.56;4920291;29;19989;-81
2022/02/11 10:55:23;;;;;;;;;;;;;;;3.11;81.45;101118.00;4936833;29;19919;-81
2022/02/11 10:57:53;;;;;;;;;;;;;;;3.12;81.58;101109.31;4936654;29;19930;-81
2022/02/11 11:00:20;;;;;;;;;;;;;;;3.18;81.74;101119.84;4937626;29;19970;-81
2022/02/11 11:02:45;;;;;;;;;;;;;;;3.14;81.35;101113.66;4918820;29;19922;-81
2022/02/11 11:05:12;;;;;;;;;;;;;;;3.09;81.21;101126.75;4914355;29;19930;-81
2022/02/11 11:07:37;;;;;;;;;;;;;;;3.12;81.38;101119.78;4919959;29;19922;-82
2022/02/11 11:10:06;;;;;;;;;;;;;;;3.11;81.30;101128.50;4937587;29;19919;-81
2022/02/11 11:12:34;;;;;;;;;;;;;;;3.10;81.10;101125.00;4920754;29;19926;-82
2022/02/11 11:14:59;;;;;;;;;;;;;;;3.15;81.00;101130.28;4937503;29;19937;-82
2022/02/11 11:17:25;;;;;;;;;;;;;;;3.11;80.58;101128.50;4918609;29;19922;-81
2022/02/11 11:19:52;;;;;;;;;;;;;;;3.12;80.59;101125.00;4937078;29;20282;-82
2022/02/11 11:22:20;;;;;;;;;;;;;;;3.10;80.42;101125.00;4919643;29;20023;-81
2022/02/11 11:24:51;;;;;;;;;;;;;;;3.09;80.28;101126.75;4935064;29;19978;-81
2022/02/11 11:27:34;;;;;;;;;;;;;;;3.09;80.30;101129.38;4937115;29;19930;-82
2022/02/11 11:30:20;;;;;;;;;;;;;;;3.14;80.30;101126.75;4935571;29;20363;-81
2022/02/11 11:33:07;;;;;;;;;;;;;;;3.09;80.13;101124.13;4908216;29;19919;-81
2022/02/11 11:35:40;;;;;;;;;;;;;;;3.13;80.08;101125.03;4936876;29;19918;-81
2022/02/11 11:38:08;;;;;;;;;;;;;;;3.11;79.93;101116.25;4936251;29;20393;-81
2022/02/11 11:40:34;;;;;;;;;;;;;;;3.13;79.78;101117.19;4936636;29;19922;-82
2022/02/11 11:43:12;;;;;;;;;;;;;;;3.14;79.75;101121.53;4936749;29;19923;-81
2022/02/11 11:45:39;;;;;;;;;;;;;;;3.17;79.85;101115.44;4936289;29;20457;-81
2022/02/11 11:48:14;;;;;;;;;;;;;;;3.16;79.65;101111.97;4935217;29;19919;-82
2022/02/11 11:50:45;;;;;;;;;;;;;;;3.15;79.76;101115.44;4935938;29;20022;-81
2022/02/11 11:53:26;;;;;;;;;;;;;;;3.14;79.58;101108.44;4936415;29;19926;-81
2022/02/11 11:55:51;;;;;;;;;;;;;;;3.15;79.35;101109.34;4936434;29;19922;-82
2022/02/11 11:58:35;;;;;;;;;;;;;;;3.19;79.30;101106.75;4936440;29;19926;-81
2022/02/11 12:01:03;;;;;;;;;;;;;;;3.16;79.00;101106.72;4936366;29;20339;-82
2022/02/11 12:03:33;;;;;;;;;;;;;;;3.18;79.12;101107.59;4932897;29;19927;-82
2022/02/11 12:06:15;;;;;;;;;;;;;;;3.18;79.08;101109.34;4935733;29;19926;-82
2022/02/11 12:08:41;;;;;;;;;;;;;;;3.21;79.05;101104.16;4935758;29;19929;-81
2022/02/11 12:11:08;;;;;;;;;;;;;;;3.23;79.00;101097.16;4936421;29;19918;-81
2022/02/11 12:13:35;;;;;;;;;;;;;;;3.24;78.92;101105.03;4918964;29;19919;-82
2022/02/11 12:16:03;;;;;;;;;;;;;;;3.22;78.98;101103.25;4936064;29;20017;-82
2022/02/11 12:18:28;;;;;;;;;;;;;;;3.22;78.97;101100.66;4916642;29;19922;-81
2022/02/11 12:20:54;;;;;;;;;;;;;;;3.25;78.81;101108.53;4935989;29;19919;-81
2022/02/11 12:28:48;;;;;;;;;;;;;;;3.29;78.47;101105.09;4935884;29;19926;-81
2022/02/11 12:31:21;;;;;;;;;;;;;;;3.26;78.22;101108.53;4935816;29;20371;-82
2022/02/11 12:33:47;;;;;;;;;;;;;;;3.22;78.20;101118.97;4934024;29;20357;-82
2022/02/11 12:36:12;;;;;;;;;;;;;;;3.28;78.19;101113.78;4935657;29;19954;-81
2022/02/11 12:38:38;;;;;;;;;;;;;;;3.28;78.30;101109.44;4935573;29;20374;-81
2022/02/11 12:41:04;;;;;;;;;;;;;;;3.29;78.20;101110.31;4935709;29;19965;-82
2022/02/11 12:43:29;;;;;;;;;;;;;;;3.29;77.77;101118.19;4935307;29;20281;-82
2022/02/11 12:45:55;;;;;;;;;;;;;;;3.27;77.58;101122.50;4935489;29;19923;-82
2022/02/11 12:48:28;;;;;;;;;;;;;;;3.22;77.51;101113.75;4933474;29;19923;-82
2022/02/11 12:50:54;;;;;;;;;;;;;;;3.44;79.45;101114.78;4935044;29;19919;-83
2022/02/11 12:53:20;;;;;;;;;;;;;;;3.56;81.58;101111.41;4935555;29;20001;-82
2022/02/11 12:55:50;;;;;;;;;;;;;;;3.58;83.48;101114.91;4935380;29;19969;-82
2022/02/11 12:58:18;;;;;;;;;;;;;;;3.63;84.99;101118.44;4933659;29;20003;-82
2022/02/11 13:00:46;;;;;;;;;;;;;;;3.71;86.43;101116.72;4934662;29;19926;-82
2022/02/11 13:03:12;;;;;;;;;;;;;;;3.72;87.42;101104.50;4933901;29;20404;-83
2022/02/11 13:05:44;;;;;;;;;;;;;;;3.75;88.48;101110.66;4935184;29;19954;-81
2022/02/11 13:08:17;;;;;;;;;;;;;;;3.80;89.75;101113.31;4935360;29;19919;-82
2022/02/11 13:10:42;;;;;;;;;;;;;;;3.84;91.56;101122.94;4934257;29;19922;-82
2022/02/11 13:13:18;;;;;;;;;;;;;;;4.03;93.39;101123.91;4935115;29;19922;-82
2022/02/11 13:15:45;;;;;;;;;;;;;;;4.32;96.04;101133.66;4934273;29;20382;-82
2022/02/11 13:18:20;;;;;;;;;;;;;;;4.54;98.47;101117.13;4933670;29;19919;-82
2022/02/11 13:20:48;;;;;;;;;;;;;;;4.72;100.00;101120.66;4934687;29;19919;-82
2022/02/11 13:23:18;;;;;;;;;;;;;;;4.86;100.00;101120.72;4934271;29;19918;-82
2022/02/11 13:25:43;;;;;;;;;;;;;;;5.01;100.00;101123.38;4934226;29;19919;-83
2022/02/11 13:28:12;;;;;;;;;;;;;;;5.09;100.00;101118.13;4935007;29;19929;-82
2022/02/11 13:30:38;;;;;;;;;;;;;;;5.15;100.00;101123.38;4935156;29;19965;-81
2022/02/11 13:33:22;;;;;;;;;;;;;;;5.23;100.00;101126.91;4932907;29;19962;-82
2022/02/11 13:35:48;;;;;;;;;;;;;;;5.34;100.00;101126.00;4934712;29;20021;-82
2022/02/11 13:38:20;;;;;;;;;;;;;;;5.36;100.00;101126.88;4934094;29;20446;-82
2022/02/11 13:40:50;;;;;;;;;;;;;;;5.42;100.00;101124.25;4934179;29;20375;-81
2022/02/11 13:43:15;;;;;;;;;;;;;;;5.48;100.00;101126.03;4935135;29;19939;-81
2022/02/11 13:45:54;;;;;;;;;;;;;;;5.51;100.00;101128.66;4917513;29;19918;-81
2022/02/11 13:48:21;;;;;;;;;;;;;;;5.54;100.00;101119.00;4933140;29;19931;-81
2022/02/11 13:50:55;;;;;;;;;;;;;;;5.61;100.00;101117.22;4934633;29;20276;-82
2022/02/11 13:53:30;;;;;;;;;;;;;;;5.67;100.00;101124.25;4934761;29;19923;-81
2022/02/11 13:55:56;;;;;;;;;;;;;;;5.74;100.00;101123.34;4934541;29;20437;-83
2022/02/11 13:58:21;;;;;;;;;;;;;;;5.75;100.00;101120.72;4934319;29;20000;-81
2022/02/11 14:00:46;;;;;;;;;;;;;;;5.79;100.00;101129.47;4934403;29;19923;-81
2022/02/11 14:03:22;;;;;;;;;;;;;;;5.83;100.00;101120.72;4916101;29;19919;-82
2022/02/11 14:05:49;;;;;;;;;;;;;;;5.87;100.00;101124.19;4933974;29;19919;-82
2022/02/11 14:08:14;;;;;;;;;;;;;;;5.91;100.00;101134.72;4934893;29;19969;-82
2022/02/11 14:10:40;;;;;;;;;;;;;;;5.94;100.00;101126.81;4938400;29;19943;-81
2022/02/11 14:13:09;;;;;;;;;;;;;;;5.95;100.00;101125.94;4938330;29;20359;-82
2022/02/11 14:15:35;;;;;;;;;;;;;;;5.97;100.00;101124.22;4920882;29;19919;-81
2022/02/11 14:18:02;;;;;;;;;;;;;;;5.98;100.00;101120.72;4936934;29;20424;-81
2022/02/11 14:20:27;;;;;;;;;;;;;;;6.05;100.00;101131.19;4937538;29;20022;-82
2022/02/11 14:22:52;;;;;;;;;;;;;;;6.07;100.00;101134.72;4938131;29;20002;-82
2022/02/11 14:25:18;;;;;;;;;;;;;;;6.08;100.00;101128.56;4920873;29;19978;-82
2022/02/11 14:27:43;;;;;;;;;;;;;;;5.55;100.00;101135.63;4920616;29;19918;-81
2022/02/11 14:30:08;;;;;;;;;;;;;;;4.81;100.00;101136.47;4938261;29;19929;-82
2022/02/11 14:32:34;;;;;;;;;;;;;;;4.51;100.00;101140.72;4936787;29;19919;-82
2022/02/11 14:34:59;;;;;;;;;;;;;;;4.40;100.00;101133.69;4932004;29;19923;-82
2022/02/11 14:37:24;;;;;;;;;;;;;;;4.34;100.00;101132.81;4920626;29;19969;-82
2022/02/11 14:39:50;;;;;;;;;;;;;;;4.28;98.42;101134.53;4937746;29;19967;-82
2022/02/11 14:42:15;;;;;;;;;;;;;;;4.12;97.01;101133.59;4936301;29;19919;-82
2022/02/11 14:44:41;;;;;;;;;;;;;;;4.21;95.45;101140.63;4920180;29;19922;-81
2022/02/11 14:47:08;;;;;;;;;;;;;;;4.06;94.25;101134.41;4936542;29;19941;-81
2022/02/11 14:49:34;;;;;;;;;;;;;;;3.92;93.21;101133.47;4937697;29;19933;-82
2022/02/11 14:52:00;;;;;;;;;;;;;;;3.89;93.06;101136.06;4936890;29;19922;-82
2022/02/11 14:54:25;;;;;;;;;;;;;;;3.83;92.48;101147.41;4937676;29;19914;-81
2022/02/11 14:56:54;;;;;;;;;;;;;;;3.82;91.36;101151.75;4937417;29;19930;-82
2022/02/11 14:59:19;;;;;;;;;;;;;;;3.77;90.56;101147.38;4937683;29;20323;-82
2022/02/11 15:01:45;;;;;;;;;;;;;;;3.67;89.94;101141.19;4937727;29;19922;-82
2022/02/11 15:04:11;;;;;;;;;;;;;;;3.72;89.72;101142.09;4936304;29;19927;-81
2022/02/11 15:06:36;;;;;;;;;;;;;;;3.70;89.04;101135.97;4937532;29;19925;-81
2022/02/11 15:09:02;;;;;;;;;;;;;;;3.69;88.78;101136.81;4937378;29;20433;-82
2022/02/11 15:11:28;;;;;;;;;;;;;;;3.64;88.30;101135.94;4937176;29;19919;-82
2022/02/11 15:13:54;;;;;;;;;;;;;;;3.64;87.94;101139.41;4937168;29;19923;-82
2022/02/11 15:16:19;;;;;;;;;;;;;;;3.52;87.64;101141.06;4937325;29;19970;-82
2022/02/11 15:18:44;;;;;;;;;;;;;;;3.63;87.49;101142.03;4936254;29;19919;-82
2022/02/11 15:21:09;;;;;;;;;;;;;;;3.57;86.77;101142.84;4936396;29;19954;-82
2022/02/11 15:23:36;;;;;;;;;;;;;;;3.55;86.59;101135.84;4937271;29;19918;-82
2022/02/11 15:26:02;;;;;;;;;;;;;;;3.56;86.15;101142.84;4936253;29;20386;-81
2022/02/11 15:28:31;;;;;;;;;;;;;;;3.51;85.62;101144.53;4936975;29;19926;-83
2022/02/11 15:30:57;;;;;;;;;;;;;;;3.53;85.67;101153.31;4936961;29;19930;-82
2022/02/11 15:33:22;;;;;;;;;;;;;;;3.45;85.34;101150.63;4935994;29;19914;-82
2022/02/11 15:35:47;;;;;;;;;;;;;;;3.39;85.18;101151.44;4936838;29;19970;-83
2022/02/11 15:38:12;;;;;;;;;;;;;;;3.45;84.59;101151.50;4936864;29;20350;-83
2022/02/11 15:40:38;;;;;;;;;;;;;;;3.39;84.72;101155.81;4936618;29;20286;-82
2022/02/11 15:43:03;;;;;;;;;;;;;;;3.37;84.16;101163.66;4936565;29;19919;-82
2022/02/11 15:45:28;;;;;;;;;;;;;;;3.38;84.21;101173.28;4919435;29;19930;-83
2022/02/11 15:47:54;;;;;;;;;;;;;;;3.25;83.85;101169.66;4935432;29;20370;-82
2022/02/11 15:50:19;;;;;;;;;;;;;;;3.28;83.92;101171.44;4936389;29;20466;-83
2022/02/11 15:52:44;;;;;;;;;;;;;;;3.31;83.75;101165.34;4936463;29;19923;-82
2022/02/11 15:55:11;;;;;;;;;;;;;;;3.27;83.54;101167.03;4936468;29;19923;-82
2022/02/11 15:57:36;;;;;;;;;;;;;;;3.24;83.59;101169.66;4918648;29;19923;-82
2022/02/11 16:00:02;;;;;;;;;;;;;;;3.26;83.54;101165.31;4935945;29;19942;-82
2022/02/11 16:02:28;;;;;;;;;;;;;;;3.21;83.41;101170.50;4934878;29;19926;-82
2022/02/11 16:04:55;;;;;;;;;;;;;;;3.22;82.96;101174.91;4935418;29;20208;-82
2022/02/11 16:07:20;;;;;;;;;;;;;;;3.11;82.76;101175.63;4936237;29;19919;-82
2022/02/11 16:09:45;;;;;;;;;;;;;;;3.14;82.71;101171.28;4918984;29;19922;-82
2022/02/11 16:12:12;;;;;;;;;;;;;;;3.15;82.66;101164.34;4936054;29;19981;-82
2022/02/11 16:14:37;;;;;;;;;;;;;;;3.16;82.18;101160.84;4935431;29;19945;-83
2022/02/11 16:17:03;;;;;;;;;;;;;;;3.10;81.94;101159.06;4917499;29;20374;-83
2022/02/11 16:19:28;;;;;;;;;;;;;;;3.11;81.98;101166.03;4935786;29;19933;-82
2022/02/11 16:21:53;;;;;;;;;;;;;;;3.09;81.69;101178.22;4935980;29;20310;-82
2022/02/11 16:24:18;;;;;;;;;;;;;;;2.97;81.77;101171.16;4935600;29;19933;-82
2022/02/11 16:26:44;;;;;;;;;;;;;;;3.01;81.77;101165.06;4934583;29;19923;-82
2022/02/11 16:29:09;;;;;;;;;;;;;;;2.98;82.08;101166.78;4935571;29;19935;-82
2022/02/11 16:31:34;;;;;;;;;;;;;;;3.06;81.79;101173.88;4933909;29;20293;-81
2022/02/11 16:34:00;;;;;;;;;;;;;;;3.00;81.76;101176.41;4932429;29;20350;-81
2022/02/11 16:36:26;;;;;;;;;;;;;;;2.99;81.63;101172.03;4935555;29;19930;-83
2022/02/11 16:38:52;;;;;;;;;;;;;;;2.95;81.75;101167.59;4934933;29;19934;-86
2022/02/11 16:41:19;;;;;;;;;;;;;;;2.95;81.57;101175.47;4917359;29;19922;-85
2022/02/11 16:43:44;;;;;;;;;;;;;;;2.90;81.45;101179.78;4933402;29;20315;-86
2022/02/11 16:46:10;;;;;;;;;;;;;;;2.89;81.14;101181.53;4916626;29;19926;-86
2022/02/11 16:48:35;;;;;;;;;;;;;;;2.93;81.21;101182.44;4915726;29;20310;-86
2022/02/11 16:51:01;;;;;;;;;;;;;;;2.88;80.98;101184.13;4935022;29;20009;-86
2022/02/11 16:53:26;;;;;;;;;;;;;;;2.80;80.84;101185.78;4934375;29;19999;-87
2022/02/11 16:55:52;;;;;;;;;;;;;;;2.82;80.94;101190.16;4917232;29;19926;-81
2022/02/11 16:58:17;;;;;;;;;;;;;;;2.79;81.12;101195.38;4932807;29;20701;-84
2022/02/11 17:00:43;;;;;;;;;;;;;;;2.76;80.89;101197.06;4934467;29;20298;-86
2022/02/11 17:03:08;;;;;;;;;;;;;;;2.78;80.88;101200.63;4933167;29;20374;-88
2022/02/11 17:05:33;;;;;;;;;;;;;;;2.81;80.83;101198.91;4934645;29;19927;-83
2022/02/11 17:07:59;;;;;;;;;;;;;;;2.81;80.66;101203.22;4934849;29;20062;-83
2022/02/11 17:10:24;;;;;;;;;;;;;;;2.77;80.80;101211.94;4933213;29;19962;-84
2022/02/11 17:12:50;;;;;;;;;;;;;;;2.78;80.85;101214.56;4917181;29;19926;-84
2022/02/11 17:15:15;;;;;;;;;;;;;;;2.84;80.70;101205.88;4935118;29;20291;-85
2022/02/11 17:17:40;;;;;;;;;;;;;;;2.81;80.73;101206.75;4933529;29;20009;-83
2022/02/11 17:20:08;;;;;;;;;;;;;;;2.78;80.60;101204.09;4933545;29;19930;-86
2022/02/11 17:22:34;;;;;;;;;;;;;;;2.82;80.66;101205.00;4917537;29;20287;-85
2022/02/11 17:24:59;;;;;;;;;;;;;;;2.78;80.52;101213.69;4917465;29;19925;-82
2022/02/11 17:27:24;;;;;;;;;;;;;;;2.82;80.34;101224.19;4933691;29;19931;-82
2022/02/11 17:29:51;;;;;;;;;;;;;;;2.78;80.18;101218.94;4915745;29;19927;-87
2022/02/11 17:32:16;;;;;;;;;;;;;;;2.66;80.26;101232.72;4916256;29;20319;-82
2022/02/11 17:34:42;;;;;;;;;;;;;;;2.72;80.12;101231.06;4933128;29;19926;-81
2022/02/11 17:37:07;;;;;;;;;;;;;;;2.65;80.05;101231.88;4933755;29;19966;-82
2022/02/11 17:39:33;;;;;;;;;;;;;;;2.73;80.04;101234.59;4933744;29;19926;-82
2022/02/11 17:42:03;;;;;;;;;;;;;;;2.72;79.87;101244.16;4932873;29;19927;-82
2022/02/11 17:44:29;;;;;;;;;;;;;;;2.66;80.08;101246.69;4915986;29;19970;-81
2022/02/11 17:46:55;;;;;;;;;;;;;;;2.68;79.97;101245.00;4916208;29;19989;-81
2022/02/11 17:49:20;;;;;;;;;;;;;;;2.71;80.06;101247.66;4915647;29;20417;-83
2022/02/11 17:51:46;;;;;;;;;;;;;;;2.70;80.02;101258.09;4933895;29;19966;-83
2022/02/11 17:54:14;;;;;;;;;;;;;;;2.69;80.06;101265.06;4932542;29;19931;-83
2022/02/11 17:56:40;;;;;;;;;;;;;;;2.69;80.01;101257.19;4930484;29;20374;-82
2022/02/11 17:59:08;;;;;;;;;;;;;;;2.67;79.96;101258.06;4933675;29;19927;-82
2022/02/11 18:01:34;;;;;;;;;;;;;;;2.65;79.61;101258.03;4933162;29;19930;-82
2022/02/11 18:03:59;;;;;;;;;;;;;;;2.67;79.69;101253.69;4915847;29;19919;-82
2022/02/11 18:06:24;;;;;;;;;;;;;;;2.64;79.44;101261.50;4934197;29;19922;-82
2022/02/11 18:08:49;;;;;;;;;;;;;;;2.62;79.30;101270.22;4933163;29;19970;-82
2022/02/11 18:11:15;;;;;;;;;;;;;;;2.64;79.35;101269.34;4916078;29;19926;-82
2022/02/11 18:13:41;;;;;;;;;;;;;;;2.59;79.24;101271.03;4917069;29;19994;-82
2022/02/11 18:16:07;;;;;;;;;;;;;;;2.55;79.10;101269.22;4934388;29;19927;-82
2022/02/11 18:18:33;;;;;;;;;;;;;;;2.60;79.02;101272.81;4933079;29;20252;-83
2022/02/11 18:20:58;;;;;;;;;;;;;;;2.61;78.85;101279.78;4915231;29;19935;-82
2022/02/11 18:23:23;;;;;;;;;;;;;;;2.64;78.92;101278.97;4933910;29;19923;-82
2022/02/11 18:25:49;;;;;;;;;;;;;;;2.60;78.89;101280.66;4930344;29;19927;-81
2022/02/11 18:28:14;;;;;;;;;;;;;;;2.63;78.77;101285.94;4916180;29;20294;-82
2022/02/11 18:30:39;;;;;;;;;;;;;;;2.61;78.70;101279.78;4915439;29;20378;-81
2022/02/11 18:33:05;;;;;;;;;;;;;;;2.60;78.67;101283.28;4933053;29;20390;-82
2022/02/11 18:35:30;;;;;;;;;;;;;;;2.66;78.66;101283.34;4913860;29;19931;-82
2022/02/11 18:37:55;;;;;;;;;;;;;;;2.59;78.63;101297.22;4916112;29;19922;-82
2022/02/11 18:40:21;;;;;;;;;;;;;;;2.60;78.52;101296.38;4916092;29;19930;-81
2022/02/11 18:42:46;;;;;;;;;;;;;;;2.62;78.67;101292.03;4916143;29;19923;-82
2022/02/11 18:45:11;;;;;;;;;;;;;;;2.58;78.45;101290.22;4913757;29;19923;-82
2022/02/11 18:47:37;;;;;;;;;;;;;;;2.55;78.62;101287.53;4931326;29;19930;-82
2022/02/11 18:50:03;;;;;;;;;;;;;;;2.54;78.32;101294.53;4933738;29;20046;-82
2022/02/11 18:52:29;;;;;;;;;;;;;;;2.56;78.18;101302.41;4928036;29;20298;-82
2022/02/11 18:54:54;;;;;;;;;;;;;;;2.59;78.13;101304.19;4914940;29;19926;-82
2022/02/11 18:57:20;;;;;;;;;;;;;;;2.55;77.99;101303.25;4935817;29;19927;-82
2022/02/11 19:02:29;;;;;;;;;;;;;;;2.54;77.56;101304.13;4934259;29;19954;-81
2022/02/11 19:04:54;;;;;;;;;;;;;;;2.52;77.22;101306.72;4936666;29;20290;-82
2022/02/11 19:07:19;;;;;;;;;;;;;;;2.51;77.09;101309.31;4918488;29;19926;-84
2022/02/11 19:09:45;;;;;;;;;;;;;;;2.53;77.45;101318.91;4918294;29;20026;-83
2022/02/11 19:12:11;;;;;;;;;;;;;;;2.57;77.46;101325.09;4936187;29;19927;-82
2022/02/11 19:14:37;;;;;;;;;;;;;;;2.57;77.34;101316.34;4918744;29;19922;-82
2022/02/11 19:17:02;;;;;;;;;;;;;;;2.57;77.46;101322.50;4935955;29;19925;-81
2022/02/11 19:19:27;;;;;;;;;;;;;;;2.54;77.51;101318.06;4935157;29;19957;-82
2022/02/11 19:21:53;;;;;;;;;;;;;;;2.55;77.42;101324.19;4936602;29;20029;-82
2022/02/11 19:24:18;;;;;;;;;;;;;;;2.57;77.36;101314.63;4919284;29;20556;-82
2022/02/11 19:26:43;;;;;;;;;;;;;;;2.56;77.60;101312.88;4918305;29;19957;-83
2022/02/11 19:29:12;;;;;;;;;;;;;;;2.55;77.56;101326.78;4935436;29;19972;-82
2022/02/11 19:31:38;;;;;;;;;;;;;;;2.57;77.49;101332.97;4914413;29;19923;-82
2022/02/11 19:34:03;;;;;;;;;;;;;;;2.57;77.43;101327.72;4934965;29;20303;-82
2022/02/11 19:36:28;;;;;;;;;;;;;;;2.51;77.26;101320.66;4935630;29;19994;-82
2022/02/11 19:38:53;;;;;;;;;;;;;;;2.54;77.19;101322.44;4936366;29;20461;-82
2022/02/11 19:41:19;;;;;;;;;;;;;;;2.54;77.12;101335.53;4916538;29;19931;-81
2022/02/11 19:43:44;;;;;;;;;;;;;;;2.54;76.95;101343.38;4934948;29;19927;-82
2022/02/11 19:46:10;;;;;;;;;;;;;;;2.54;76.96;101335.53;4935135;29;19929;-83
2022/02/11 19:48:38;;;;;;;;;;;;;;;2.51;76.88;101340.72;4913471;29;19923;-83
2022/02/11 19:51:06;;;;;;;;;;;;;;;2.55;76.92;101345.13;4917022;29;19946;-82
2022/02/11 19:53:31;;;;;;;;;;;;;;;2.50;76.83;101349.41;4935109;29;19997;-82
2022/02/11 19:55:56;;;;;;;;;;;;;;;2.51;76.61;101351.19;4935405;29;20445;-81
2022/02/11 19:58:22;;;;;;;;;;;;;;;2.53;76.48;101342.47;4917474;29;19923;-82
2022/02/11 20:00:47;;;;;;;;;;;;;;;2.51;76.26;101346.81;4935700;29;19922;-82
2022/02/11 20:03:12;;;;;;;;;;;;;;;2.50;76.33;101346.78;4917021;29;19934;-80
2022/02/11 20:05:38;;;;;;;;;;;;;;;2.50;76.29;101349.41;4934090;29;19977;-82
2022/02/11 20:08:04;;;;;;;;;;;;;;;2.86;76.55;101346.44;4935603;29;20097;-77
2022/02/11 20:10:29;;;;;;;;;;;;;;;3.31;77.11;101347.00;4918504;29;20082;-83
2022/02/11 20:12:55;;;;;;;;;;;;;;;2.82;77.68;101344.63;4917516;29;19927;-82
2022/02/11 20:15:21;;;;;;;;;;;;;;;2.72;77.68;101348.00;4935528;29;19930;-82
2022/02/11 20:17:50;;;;;;;;;;;;;;;2.63;77.43;101346.13;4915714;29;19923;-81
2022/02/11 20:20:16;;;;;;;;;;;;;;;2.64;77.28;101347.00;4933898;29;20370;-82
2022/02/11 20:22:43;;;;;;;;;;;;;;;2.60;77.07;101355.66;4933054;29;19945;-82
2022/02/11 20:25:09;;;;;;;;;;;;;;;2.66;77.13;101359.25;4918409;29;20461;-81
2022/02/11 20:27:35;;;;;;;;;;;;;;;2.57;76.85;101351.28;4933479;29;19933;-82
2022/02/11 20:30:00;;;;;;;;;;;;;;;2.56;76.68;101349.50;4934775;29;19923;-82
2022/02/11 20:32:26;;;;;;;;;;;;;;;2.55;76.67;101360.81;4916444;29;19927;-82
2022/02/11 20:34:51;;;;;;;;;;;;;;;2.57;76.59;101351.28;4915911;29;20457;-81
2022/02/11 20:37:17;;;;;;;;;;;;;;;2.54;76.53;101356.47;4934199;29;20394;-82
2022/02/11 20:39:42;;;;;;;;;;;;;;;2.58;76.29;101352.16;4917629;29;19929;-82
2022/02/11 20:42:07;;;;;;;;;;;;;;;2.54;76.30;101346.00;4917826;29;20014;-82
2022/02/11 20:44:33;;;;;;;;;;;;;;;2.53;76.10;101350.31;4916131;29;19930;-82
2022/02/11 20:46:59;;;;;;;;;;;;;;;2.52;76.13;101342.44;4934839;29;19927;-82
2022/02/11 20:49:24;;;;;;;;;;;;;;;2.48;75.80;101352.00;4924542;29;19978;-81
2022/02/11 20:51:49;;;;;;;;;;;;;;;2.49;75.79;101350.25;4934770;29;19930;-82
2022/02/11 20:54:17;;;;;;;;;;;;;;;2.49;75.52;101351.16;4933326;29;19927;-82
2022/02/11 20:56:42;;;;;;;;;;;;;;;2.52;75.45;101351.19;4934979;29;19929;-82
2022/02/11 20:59:08;;;;;;;;;;;;;;;2.51;75.43;101349.44;4933895;29;20021;-82
2022/02/11 21:01:35;;;;;;;;;;;;;;;2.51;75.41;101351.19;4933283;29;19934;-81
2022/02/11 21:04:00;;;;;;;;;;;;;;;2.51;75.21;101352.06;4931034;29;19938;-82
2022/02/11 21:09:10;;;;;;;;;;;;;;;2.49;74.96;101347.63;4932841;29;19934;-82
2022/02/11 21:11:38;;;;;;;;;;;;;;;2.50;74.64;101352.91;4932988;29;19923;-82